Terminal Aerodrome Forecast
Issued by NWS

Home | Current Version | Previous Version | Text Only | Print | Product List | Glossary On
Versions: 1 2 3 4 5 6 7 8 9 10 11 12 13 14 15 16 17 18 19 20 21 22 23 24
000
FTUS45 KREV 040524
TAFTVL
TAF
KTVL 040524Z 0406/0506 16004KT P6SM SCT180
     FM041600 19008G17KT P6SM FEW100 SCT180
     FM042200 20016G26KT P6SM SCT100 SCT180
     FM050300 19007KT P6SM FEW100 BKN180=

USA.gov is the U.S. government's official web portal to all federal, state and local government web resources and services.